This is the latest recevied weather packets stored in our database for station/object VK3HAG. If no packets are shown the sender has not sent any weather packets the latest 1 day(s).
| Time | Temp. | Humidity | Pressure | Rain* | Wind** | Luminosity | Snow |
|---|---|---|---|---|---|---|---|
| 1778066105 | 9.44° C | 89% | 1016.4 hPa | 0.51 mm | - | - | - |
| 1778059805 | 12.78° C | 89% | 1015 hPa | 2.03 mm | - | - | - |
| 1778055305 | 13.89° C | 81% | 1013.4 hPa | 0.51 mm | - | - | - |
| 1778053504 | 15.56° C | 71% | 1013.2 hPa | 0 mm | - | - | - |
| 1778051705 | 15.56° C | 70% | 1013.1 hPa | 0 mm | - | - | - |
| 1778050805 | 15.56° C | 69% | 1013.3 hPa | 0 mm | - | - | - |
| 1778049005 | 16.67° C | 67% | 1013.7 hPa | 0 mm | - | - | - |
| 1778047205 | 17.22° C | 63% | 1013.9 hPa | 0 mm | - | - | - |
| 1778044504 | 17.78° C | 60% | 1014.4 hPa | 0 mm | - | - | - |
| 1778043605 | 17.78° C | 60% | 1014.5 hPa | 0 mm | - | - | - |
| 1778041805 | 17.78° C | 61% | 1015 hPa | 0 mm | - | - | - |
| 1778037305 | 17.78° C | 64% | 1015.9 hPa | 0 mm | - | - | - |
| 1778033704 | 16.67° C | 65% | 1017.1 hPa | 0 mm | - | - | - |
| 1778031904 | 16.11° C | 68% | 1017.7 hPa | 0 mm | - | - | - |
| 1778030105 | 16.11° C | 66% | 1018.1 hPa | 0 mm | - | - | - |
| 1778022005 | 13.89° C | 73% | 1019.2 hPa | 0 mm | - | - | - |
| 1778018405 | 13.33° C | 75% | 1019.2 hPa | 0 mm | - | - | - |
| 1778014805 | 13.33° C | 75% | 1019.3 hPa | 0 mm | - | - | - |
| 1777999505 | 13.33° C | 74% | 1019.8 hPa | 0 mm | - | - | - |
| 1777995905 | 12.78° C | 80% | 1020.3 hPa | 0 mm | - | - | - |
| 1777993205 | 12.78° C | 81% | 1020.6 hPa | 0 mm | - | - | - |
* Rain latest hour (hover to see other rain measurements)
** Current wind speed in m/s (hover to see current wind gust speed)